createdAt,value
2023-03-17T00:02:37.008Z,26.08
2023-03-17T00:06:36.922Z,26.02
2023-03-17T00:10:36.892Z,26.06
2023-03-17T00:14:36.826Z,26.03
2023-03-17T00:18:36.792Z,26.07
2023-03-17T00:22:36.773Z,26.08
2023-03-17T00:26:36.876Z,26.01
2023-03-17T00:30:37.142Z,26.02
2023-03-17T00:34:37.301Z,26.08
2023-03-17T00:38:37.618Z,26.02
2023-03-17T00:42:37.755Z,26.04
2023-03-17T00:46:38.263Z,26.06
2023-03-17T00:50:38.141Z,26.06
2023-03-17T00:54:38.116Z,26.14
2023-03-17T00:58:38.094Z,26.09
2023-03-17T01:02:38.053Z,26.12
2023-03-17T01:06:38.012Z,26.06
2023-03-17T01:10:37.967Z,26.05
2023-03-17T01:14:38.183Z,26.12
2023-03-17T01:18:37.994Z,26.11
2023-03-17T01:22:37.877Z,26.12
2023-03-17T01:26:37.848Z,26.18
2023-03-17T01:30:37.823Z,26.09
2023-03-17T01:34:37.799Z,26.10
2023-03-17T01:38:37.784Z,26.08
2023-03-17T01:42:37.684Z,26.05
2023-03-17T01:46:37.663Z,26.07
2023-03-17T01:50:37.627Z,26.07
2023-03-17T01:54:37.611Z,26.04
2023-03-17T01:58:37.578Z,26.11
2023-03-17T02:02:37.517Z,26.11
2023-03-17T02:06:47.472Z,26.06
2023-03-17T02:10:38.473Z,26.11
2023-03-17T02:14:38.039Z,26.11
2023-03-17T02:18:37.432Z,26.11
2023-03-17T02:22:37.403Z,26.08
2023-03-17T02:26:37.377Z,26.12
2023-03-17T02:30:37.355Z,26.12
2023-03-17T02:34:37.309Z,26.04
2023-03-17T02:38:37.260Z,26.07
2023-03-17T02:42:37.240Z,26.06
2023-03-17T02:46:37.238Z,26.02
2023-03-17T02:50:37.186Z,26.05
2023-03-17T02:54:37.245Z,25.99
2023-03-17T02:58:37.198Z,26.01
2023-03-17T03:02:37.167Z,26.01
2023-03-17T03:06:37.109Z,26.01
2023-03-17T03:10:37.074Z,26.02
2023-03-17T03:14:37.057Z,26.03
2023-03-17T03:18:37.017Z,26.02
2023-03-17T03:22:37.112Z,25.99
2023-03-17T03:26:36.963Z,26.00
2023-03-17T03:30:36.906Z,26.04
2023-03-17T03:34:37.056Z,25.97
2023-03-17T03:38:37.052Z,26.01
2023-03-17T03:42:36.995Z,25.98
2023-03-17T03:46:37.052Z,26.02
2023-03-17T03:50:36.954Z,25.97
2023-03-17T03:54:36.879Z,26.02
2023-03-17T03:58:37.085Z,25.94
2023-03-17T04:02:36.876Z,25.99
2023-03-17T04:06:36.757Z,25.98
2023-03-17T04:10:36.732Z,25.96
2023-03-17T04:14:36.704Z,25.94
2023-03-17T04:18:36.928Z,25.95
2023-03-17T04:22:36.957Z,25.94
2023-03-17T04:26:37.194Z,25.93
2023-03-17T04:30:37.343Z,25.93
2023-03-17T04:34:37.545Z,25.97
2023-03-17T04:38:37.533Z,25.95
2023-03-17T04:42:37.635Z,26.00
2023-03-17T04:46:37.464Z,26.03
2023-03-17T04:50:37.378Z,26.04
2023-03-17T04:54:37.408Z,26.00
2023-03-17T04:58:37.382Z,25.85
2023-03-17T05:02:37.278Z,25.81
2023-03-17T05:06:37.244Z,25.71
2023-03-17T05:10:37.233Z,25.67
2023-03-17T05:14:37.258Z,25.61
2023-03-17T05:18:37.189Z,25.63
2023-03-17T05:22:37.121Z,25.51
2023-03-17T05:26:37.091Z,25.53
2023-03-17T05:30:37.086Z,25.50
2023-03-17T05:34:37.021Z,25.39
2023-03-17T05:38:36.992Z,25.45
2023-03-17T05:42:36.970Z,25.40
2023-03-17T05:46:37.010Z,25.40
2023-03-17T05:50:36.956Z,25.45
2023-03-17T05:54:36.985Z,25.45
2023-03-17T05:58:37.163Z,25.47
2023-03-17T06:02:37.422Z,25.41
2023-03-17T06:06:37.620Z,25.44
2023-03-17T06:10:37.805Z,25.43
2023-03-17T06:14:38.036Z,25.48
2023-03-17T06:18:38.199Z,25.51
2023-03-17T06:22:46.272Z,25.43
2023-03-17T06:26:39.661Z,25.51
2023-03-17T06:30:40.614Z,25.41
2023-03-17T06:34:38.544Z,25.45
2023-03-17T06:38:39.361Z,26.11
2023-03-17T06:42:38.315Z,27.12
2023-03-17T06:46:38.314Z,29.35
2023-03-17T06:50:38.212Z,28.09
2023-03-17T06:54:38.218Z,27.50
2023-03-17T06:58:38.271Z,26.79
2023-03-17T07:02:38.762Z,26.64
2023-03-17T07:06:38.014Z,26.50
2023-03-17T07:10:38.452Z,26.26
2023-03-17T07:14:38.263Z,26.42
2023-03-17T07:18:38.071Z,26.69
2023-03-17T07:22:38.120Z,26.87
2023-03-17T07:26:37.986Z,26.83
2023-03-17T07:30:38.827Z,27.03
2023-03-17T07:34:38.396Z,27.51
2023-03-17T07:38:38.406Z,27.88
2023-03-17T07:42:38.341Z,26.93
2023-03-17T07:46:38.247Z,26.47
2023-03-17T07:50:38.443Z,26.29
2023-03-17T07:54:38.689Z,26.06
2023-03-17T07:58:38.804Z,25.88
2023-03-17T08:02:38.324Z,25.81
2023-03-17T08:06:38.032Z,25.87
2023-03-17T08:10:38.200Z,25.81
2023-03-17T08:14:38.014Z,25.66
2023-03-17T08:18:37.951Z,25.54
2023-03-17T08:22:38.009Z,25.45
2023-03-17T08:26:38.241Z,25.42
2023-03-17T08:30:39.189Z,25.50
2023-03-17T08:34:38.140Z,26.37
2023-03-17T08:38:38.122Z,27.69
2023-03-17T08:42:38.393Z,27.73
2023-03-17T08:46:37.972Z,28.37
2023-03-17T08:50:37.946Z,28.95
2023-03-17T08:54:37.973Z,29.63
2023-03-17T08:58:37.932Z,30.32
2023-03-17T09:02:40.760Z,30.73
2023-03-17T09:06:38.797Z,31.36
2023-03-17T09:10:37.796Z,31.88
2023-03-17T09:14:43.740Z,32.37
2023-03-17T09:18:38.752Z,32.86
2023-03-17T09:22:37.672Z,33.51
2023-03-17T09:26:38.870Z,33.06
2023-03-17T09:30:38.074Z,32.43
2023-03-17T09:34:38.148Z,31.68
2023-03-17T09:38:38.233Z,30.64
2023-03-17T09:42:38.172Z,30.44
2023-03-17T09:46:38.281Z,31.80
2023-03-17T09:50:38.196Z,32.14
2023-03-17T09:54:38.199Z,31.63
2023-03-17T09:58:38.744Z,30.79
2023-03-17T10:02:38.132Z,30.43
2023-03-17T10:06:38.226Z,29.89
2023-03-17T10:10:38.092Z,29.49
2023-03-17T10:14:38.165Z,29.10
2023-03-17T10:18:38.349Z,28.57
2023-03-17T10:22:38.374Z,27.62
2023-03-17T10:26:38.485Z,27.80
2023-03-17T10:30:39.634Z,28.01
2023-03-17T10:34:39.448Z,28.06
2023-03-17T10:38:39.144Z,27.71
2023-03-17T10:42:39.010Z,27.24
2023-03-17T10:46:39.071Z,27.34
2023-03-17T10:50:38.961Z,27.47
2023-03-17T10:54:39.304Z,27.58
2023-03-17T10:58:39.064Z,27.39
2023-03-17T11:02:38.818Z,27.17
2023-03-17T11:06:38.786Z,27.16
2023-03-17T11:10:38.713Z,26.94
2023-03-17T11:14:38.680Z,26.97
2023-03-17T11:18:38.739Z,26.90
2023-03-17T11:22:38.675Z,26.99
2023-03-17T11:26:38.925Z,26.94
2023-03-17T11:30:38.862Z,27.08
2023-03-17T11:34:39.795Z,27.25
2023-03-17T11:38:38.773Z,27.25
2023-03-17T11:42:38.754Z,27.59
2023-03-17T11:46:38.837Z,28.21
2023-03-17T11:50:38.876Z,28.35
2023-03-17T11:54:38.700Z,28.33
2023-03-17T11:58:38.901Z,28.27
2023-03-17T12:02:38.908Z,28.34
2023-03-17T12:06:38.838Z,28.49
2023-03-17T12:10:38.776Z,28.71
2023-03-17T12:14:38.672Z,28.84
2023-03-17T12:18:38.691Z,29.26
2023-03-17T12:22:38.608Z,29.06
2023-03-17T12:26:38.643Z,29.16
2023-03-17T12:30:38.653Z,29.18
2023-03-17T12:34:38.538Z,29.27
2023-03-17T12:38:38.636Z,29.28
2023-03-17T12:42:38.643Z,29.34
2023-03-17T12:46:38.595Z,29.39
2023-03-17T12:50:38.600Z,29.44
2023-03-17T12:54:38.553Z,29.45
2023-03-17T12:58:38.447Z,29.47
2023-03-17T13:02:38.423Z,29.52
2023-03-17T13:06:38.361Z,29.48
2023-03-17T13:10:38.360Z,29.53
2023-03-17T13:14:38.310Z,29.53
2023-03-17T13:18:38.268Z,29.54
2023-03-17T13:22:38.295Z,29.51
2023-03-17T13:26:38.223Z,29.53
2023-03-17T13:30:38.139Z,29.51
2023-03-17T13:34:38.105Z,29.48
2023-03-17T13:38:38.342Z,29.47
2023-03-17T13:42:38.150Z,29.47
2023-03-17T13:46:38.330Z,29.48
2023-03-17T13:50:38.182Z,29.52
2023-03-17T13:54:38.137Z,29.45
2023-03-17T13:58:38.205Z,29.48
2023-03-17T14:02:38.936Z,29.48
2023-03-17T14:06:38.096Z,29.55
2023-03-17T14:10:38.063Z,29.99
2023-03-17T14:14:38.034Z,30.02
2023-03-17T14:18:38.091Z,30.34
2023-03-17T14:22:38.049Z,32.02
2023-03-17T14:26:38.036Z,32.29
2023-03-17T14:30:37.943Z,32.39
2023-03-17T14:34:37.952Z,32.38
2023-03-17T14:38:37.951Z,32.33
2023-03-17T14:42:37.916Z,32.30
2023-03-17T14:46:38.000Z,32.25
2023-03-17T14:50:37.942Z,32.18
2023-03-17T14:54:37.941Z,32.11
2023-03-17T14:58:37.938Z,31.85
2023-03-17T15:02:38.139Z,31.74
2023-03-17T15:06:38.865Z,31.70
2023-03-17T15:10:38.055Z,31.55
2023-03-17T15:14:38.044Z,31.39
2023-03-17T15:18:38.204Z,31.21
2023-03-17T15:22:38.175Z,30.99
2023-03-17T15:26:38.240Z,30.34
2023-03-17T15:30:47.061Z,29.87
2023-03-17T15:34:39.118Z,30.05
2023-03-17T15:38:38.441Z,29.79
2023-03-17T15:42:38.008Z,29.46
2023-03-17T15:46:38.001Z,29.19
2023-03-17T15:50:37.950Z,28.98
2023-03-17T15:54:37.935Z,28.56
2023-03-17T15:58:37.940Z,27.85
2023-03-17T16:02:37.914Z,27.99
2023-03-17T16:06:37.869Z,27.38
2023-03-17T16:10:37.909Z,27.48
2023-03-17T16:14:37.979Z,27.13
2023-03-17T16:18:38.000Z,27.12
2023-03-17T16:22:38.107Z,26.84
2023-03-17T16:26:38.332Z,26.67
2023-03-17T16:30:38.240Z,26.72
2023-03-17T16:34:38.271Z,26.76
2023-03-17T16:38:38.345Z,26.56
2023-03-17T16:42:38.427Z,26.44
2023-03-17T16:46:38.480Z,26.49
2023-03-17T16:50:38.601Z,26.34
2023-03-17T16:54:38.666Z,26.39
2023-03-17T16:58:38.736Z,26.22
2023-03-17T17:02:38.943Z,26.40
2023-03-17T17:06:38.984Z,26.46
2023-03-17T17:10:39.031Z,26.37
2023-03-17T17:14:39.124Z,26.42
2023-03-17T17:18:39.289Z,26.55
2023-03-17T17:22:39.290Z,26.45
2023-03-17T17:26:39.450Z,26.48
2023-03-17T17:30:39.506Z,26.70
2023-03-17T17:34:39.646Z,26.40
2023-03-17T17:38:39.790Z,26.62
2023-03-17T17:42:39.850Z,26.54
2023-03-17T17:46:40.009Z,26.46
2023-03-17T17:50:40.100Z,26.67
2023-03-17T17:54:40.262Z,26.53
2023-03-17T17:58:40.445Z,26.65
2023-03-17T18:02:40.537Z,26.77
2023-03-17T18:06:40.709Z,26.83
2023-03-17T18:10:40.787Z,26.59
2023-03-17T18:14:40.984Z,26.56
2023-03-17T18:18:41.132Z,26.45
2023-03-17T18:22:41.217Z,26.40
2023-03-17T18:26:41.383Z,26.42
2023-03-17T18:30:42.408Z,26.42
2023-03-17T18:34:41.659Z,26.52
2023-03-17T18:38:41.833Z,26.28
2023-03-17T18:42:42.086Z,26.54
2023-03-17T18:46:42.207Z,26.45
2023-03-17T18:50:44.961Z,26.46
2023-03-17T18:54:42.236Z,26.52
2023-03-17T18:58:42.291Z,26.59
2023-03-17T19:02:42.188Z,26.74
2023-03-17T19:06:42.169Z,26.76
2023-03-17T19:10:42.508Z,26.96
2023-03-17T19:14:42.069Z,26.92
2023-03-17T19:18:42.388Z,27.01
2023-03-17T19:22:42.514Z,27.07
2023-03-17T19:26:42.009Z,27.14
2023-03-17T19:30:41.899Z,27.21
2023-03-17T19:34:41.911Z,27.24
2023-03-17T19:38:41.852Z,27.28
2023-03-17T19:42:41.866Z,27.26
2023-03-17T19:46:42.076Z,27.34
2023-03-17T19:50:42.229Z,27.37
2023-03-17T19:54:42.408Z,27.43
2023-03-17T19:58:42.534Z,27.42
2023-03-17T20:02:42.778Z,27.47
2023-03-17T20:06:42.956Z,27.53
2023-03-17T20:10:43.138Z,27.59
2023-03-17T20:14:43.290Z,27.65
2023-03-17T20:18:43.430Z,27.68
2023-03-17T20:22:43.655Z,27.72
2023-03-17T20:26:43.849Z,27.71
2023-03-17T20:30:44.022Z,27.82
2023-03-17T20:34:44.175Z,27.79
2023-03-17T20:38:44.460Z,27.85
2023-03-17T20:42:44.594Z,27.84
2023-03-17T20:46:44.887Z,27.86
2023-03-17T20:50:45.027Z,27.89
2023-03-17T20:54:45.511Z,27.93
2023-03-17T20:58:45.449Z,27.95
2023-03-17T21:02:45.780Z,27.96
2023-03-17T21:06:45.851Z,27.97
2023-03-17T21:10:46.058Z,28.01
2023-03-17T21:14:46.266Z,28.05
2023-03-17T21:18:46.477Z,28.07
2023-03-17T21:22:47.039Z,28.10
2023-03-17T21:26:46.885Z,28.16
2023-03-17T21:30:47.105Z,28.12
2023-03-17T21:34:47.333Z,28.15
2023-03-17T21:38:47.563Z,28.20
2023-03-17T21:42:47.846Z,28.20
2023-03-17T21:46:48.096Z,28.18
2023-03-17T21:50:47.814Z,28.24
2023-03-17T21:54:47.656Z,28.25
2023-03-17T21:58:47.624Z,28.27
2023-03-17T22:02:47.632Z,28.28
2023-03-17T22:06:47.568Z,28.27
2023-03-17T22:10:47.558Z,28.26
2023-03-17T22:14:47.467Z,28.31
2023-03-17T22:18:47.498Z,28.33
2023-03-17T22:22:47.417Z,28.37
2023-03-17T22:26:47.436Z,28.37
2023-03-17T22:30:47.360Z,28.49
2023-03-17T22:34:47.348Z,28.39
2023-03-17T22:38:47.295Z,28.44
2023-03-17T22:42:47.354Z,28.43
2023-03-17T22:46:47.258Z,28.51
2023-03-17T22:50:47.204Z,28.51
2023-03-17T22:54:47.137Z,28.52
2023-03-17T22:58:48.034Z,28.52
2023-03-17T23:02:47.288Z,28.50
2023-03-17T23:06:47.583Z,28.57
2023-03-17T23:10:47.240Z,28.53
2023-03-17T23:14:47.260Z,28.57
2023-03-17T23:18:47.232Z,28.61
2023-03-17T23:22:47.166Z,28.61
2023-03-17T23:26:47.150Z,28.63
2023-03-17T23:30:47.076Z,28.63
2023-03-17T23:34:47.028Z,28.66
2023-03-17T23:38:47.003Z,28.67
2023-03-17T23:42:47.062Z,28.70
2023-03-17T23:46:46.999Z,28.69
2023-03-17T23:50:46.953Z,28.74
2023-03-17T23:54:46.931Z,28.74
2023-03-17T23:58:46.857Z,28.73
